createdAt,value
2022-10-24T00:01:18.614Z,11.96
2022-10-24T00:03:45.713Z,11.59
2022-10-24T00:06:14.666Z,9.69
2022-10-24T00:08:42.985Z,10.60
2022-10-24T00:11:14.891Z,11.65
2022-10-24T00:13:42.211Z,10.90
2022-10-24T00:16:10.243Z,10.54
2022-10-24T00:18:37.666Z,9.32
2022-10-24T00:21:05.652Z,8.85
2022-10-24T00:23:34.279Z,9.38
2022-10-24T00:26:02.724Z,10.50
2022-10-24T00:28:30.193Z,10.31
2022-10-24T00:30:59.157Z,8.62
2022-10-24T00:33:26.760Z,11.36
2022-10-24T00:35:53.763Z,11.19
2022-10-24T00:38:20.665Z,10.26
2022-10-24T00:40:51.380Z,11.67
2022-10-24T00:43:21.727Z,11.27
2022-10-24T00:45:50.648Z,10.52
2022-10-24T00:48:22.891Z,11.06
2022-10-24T00:50:52.436Z,9.28
2022-10-24T00:53:20.303Z,9.87
2022-10-24T00:55:49.553Z,10.45
2022-10-24T00:58:21.748Z,9.43
2022-10-24T01:00:49.082Z,8.17
2022-10-24T01:03:16.258Z,9.97
2022-10-24T01:05:57.908Z,12.02
2022-10-24T01:08:36.908Z,10.44
2022-10-24T01:11:15.766Z,10.55
2022-10-24T01:13:57.689Z,12.38
2022-10-24T01:16:29.868Z,10.86
2022-10-24T01:19:08.052Z,12.62
2022-10-24T01:21:37.495Z,10.52
2022-10-24T01:24:33.700Z,12.08
2022-10-24T01:27:31.161Z,11.94
2022-10-24T01:30:05.188Z,12.24
2022-10-24T01:32:48.713Z,10.55
2022-10-24T01:35:28.362Z,10.72
2022-10-24T01:38:02.087Z,10.21
2022-10-24T01:40:33.929Z,10.11
2022-10-24T01:43:09.244Z,10.30
2022-10-24T01:48:12.251Z,12.30
2022-10-24T01:50:41.802Z,12.75
2022-10-24T01:53:09.983Z,14.98
2022-10-24T01:55:39.100Z,12.48
2022-10-24T01:58:07.078Z,10.88
2022-10-24T02:00:35.830Z,12.46
2022-10-24T02:03:11.820Z,13.56
2022-10-24T02:05:46.131Z,12.94
2022-10-24T02:08:17.356Z,12.85
2022-10-24T02:10:48.629Z,12.04
2022-10-24T02:13:19.671Z,11.88
2022-10-24T02:15:52.327Z,11.93
2022-10-24T02:18:21.122Z,10.84
2022-10-24T02:20:55.600Z,11.15
2022-10-24T02:23:30.856Z,10.24
2022-10-24T02:26:04.749Z,13.00
2022-10-24T02:28:39.729Z,14.11
2022-10-24T02:31:11.367Z,13.27
2022-10-24T02:33:41.042Z,12.01
2022-10-24T02:36:12.210Z,10.45
2022-10-24T02:38:42.509Z,11.32
2022-10-24T02:41:13.090Z,11.70
2022-10-24T02:43:42.298Z,10.57
2022-10-24T02:46:12.392Z,9.96
2022-10-24T02:48:45.207Z,11.44
2022-10-24T02:51:14.256Z,13.94
2022-10-24T02:53:41.193Z,14.84
2022-10-24T02:56:08.154Z,15.66
2022-10-24T02:58:36.039Z,12.62
2022-10-24T03:01:03.041Z,12.71
2022-10-24T03:03:29.971Z,15.12
2022-10-24T03:06:00.432Z,12.10
2022-10-24T03:08:27.462Z,13.41
2022-10-24T03:10:54.397Z,13.28
2022-10-24T03:13:21.291Z,13.65
2022-10-24T03:18:16.073Z,14.34
2022-10-24T03:20:42.825Z,12.54
2022-10-24T03:23:11.078Z,15.62
2022-10-24T03:25:37.966Z,14.15
2022-10-24T03:28:05.454Z,13.25
2022-10-24T03:30:32.256Z,16.12
2022-10-24T03:33:00.258Z,13.18
2022-10-24T03:35:27.051Z,15.66
2022-10-24T03:37:54.356Z,14.98
2022-10-24T03:40:22.711Z,16.27
2022-10-24T03:42:49.538Z,13.72
2022-10-24T03:45:16.508Z,14.07
2022-10-24T03:47:44.532Z,12.61
2022-10-24T03:50:11.393Z,15.54
2022-10-24T03:52:38.256Z,14.26
2022-10-24T03:55:05.975Z,15.52
2022-10-24T03:57:34.980Z,15.58
2022-10-24T04:00:02.001Z,15.34
2022-10-24T04:02:28.782Z,16.23
2022-10-24T04:04:55.770Z,13.96
2022-10-24T04:07:25.075Z,13.30
2022-10-24T04:09:53.856Z,14.74
2022-10-24T04:12:20.629Z,16.41
2022-10-24T04:14:52.046Z,17.23
2022-10-24T04:17:19.227Z,16.67
2022-10-24T04:19:46.236Z,15.44
2022-10-24T04:22:13.056Z,17.21
2022-10-24T04:24:42.591Z,17.18
2022-10-24T04:27:09.535Z,17.60
2022-10-24T04:29:36.471Z,15.88
2022-10-24T04:32:04.950Z,14.39
2022-10-24T04:34:34.238Z,12.53
2022-10-24T04:37:01.098Z,17.81
2022-10-24T04:39:29.686Z,14.73
2022-10-24T04:41:56.634Z,14.04
2022-10-24T04:44:24.454Z,15.69
2022-10-24T04:46:51.747Z,17.46
2022-10-24T04:49:21.908Z,20.15
2022-10-24T04:51:48.907Z,17.75
2022-10-24T04:54:15.955Z,16.20
2022-10-24T04:56:42.727Z,16.14
2022-10-24T04:59:09.456Z,18.15
2022-10-24T05:01:36.866Z,16.79
2022-10-24T05:04:04.097Z,16.76
2022-10-24T05:06:33.932Z,16.43
2022-10-24T05:09:00.730Z,17.12
2022-10-24T05:11:27.803Z,15.58
2022-10-24T05:13:54.611Z,16.64
2022-10-24T05:16:21.907Z,17.84
2022-10-24T05:18:49.454Z,14.75
2022-10-24T05:21:18.566Z,15.53
2022-10-24T05:23:46.792Z,15.28
2022-10-24T05:26:14.816Z,14.77
2022-10-24T05:28:42.103Z,17.03
2022-10-24T05:31:11.419Z,15.87
2022-10-24T05:33:39.398Z,16.61
2022-10-24T05:36:08.133Z,17.15
2022-10-24T05:38:37.522Z,17.97
2022-10-24T05:41:06.963Z,16.22
2022-10-24T05:43:35.703Z,14.73
2022-10-24T05:46:02.872Z,15.53
2022-10-24T05:48:29.751Z,16.61
2022-10-24T05:50:59.476Z,15.89
2022-10-24T05:53:28.807Z,13.88
2022-10-24T05:55:56.348Z,13.11
2022-10-24T05:58:27.284Z,15.10
2022-10-24T06:00:54.549Z,15.69
2022-10-24T06:03:25.147Z,17.47
2022-10-24T06:05:51.962Z,16.88
2022-10-24T06:08:19.619Z,17.64
2022-10-24T06:10:49.011Z,17.06
2022-10-24T06:15:50.027Z,17.60
2022-10-24T06:18:17.673Z,15.13
2022-10-24T06:20:46.115Z,15.52
2022-10-24T06:23:13.119Z,15.96
2022-10-24T06:25:46.067Z,16.82
2022-10-24T06:28:12.850Z,16.71
2022-10-24T06:30:41.025Z,17.01
2022-10-24T06:33:10.180Z,13.62
2022-10-24T06:35:37.610Z,13.32
2022-10-24T06:38:04.565Z,14.68
2022-10-24T06:40:31.331Z,16.27
2022-10-24T06:45:40.330Z,14.56
2022-10-24T06:48:07.273Z,14.84
2022-10-24T06:50:36.896Z,13.60
2022-10-24T06:53:03.655Z,13.58
2022-10-24T06:55:30.650Z,12.94
2022-10-24T06:57:58.928Z,12.69
2022-10-24T07:02:55.644Z,10.66
2022-10-24T07:05:24.051Z,11.73
2022-10-24T07:07:52.786Z,13.59
2022-10-24T07:10:19.760Z,15.81
2022-10-24T07:12:47.844Z,11.32
2022-10-24T07:15:15.003Z,12.75
2022-10-24T07:17:43.298Z,14.77
2022-10-24T07:20:11.858Z,12.21
2022-10-24T07:22:39.943Z,13.71
2022-10-24T07:25:10.053Z,13.25
2022-10-24T07:27:37.503Z,12.50
2022-10-24T07:30:05.854Z,14.23
2022-10-24T07:32:37.103Z,13.22
2022-10-24T07:35:04.227Z,13.18
2022-10-24T07:37:31.429Z,11.63
2022-10-24T07:39:59.646Z,10.30
2022-10-24T07:42:30.442Z,10.05
2022-10-24T07:44:57.559Z,9.27
2022-10-24T07:47:27.773Z,9.87
2022-10-24T07:49:54.536Z,12.62
2022-10-24T07:52:21.757Z,11.36
2022-10-24T07:54:48.751Z,11.33
2022-10-24T07:57:15.606Z,9.86
2022-10-24T07:59:45.034Z,12.94
2022-10-24T08:02:12.681Z,13.76
2022-10-24T08:04:40.740Z,13.73
2022-10-24T08:07:13.780Z,12.01
2022-10-24T08:09:44.469Z,12.30
2022-10-24T08:12:11.722Z,11.61
2022-10-24T08:14:40.796Z,9.74
2022-10-24T08:17:11.747Z,9.41
2022-10-24T08:19:42.376Z,11.02
2022-10-24T08:22:11.062Z,8.41
2022-10-24T08:24:38.058Z,8.14
2022-10-24T08:27:04.802Z,9.17
2022-10-24T08:29:31.718Z,8.71
2022-10-24T08:31:58.772Z,8.04
2022-10-24T08:34:27.377Z,10.48
2022-10-24T08:36:54.594Z,9.95
2022-10-24T08:39:21.767Z,12.50
2022-10-24T08:41:54.548Z,11.75
2022-10-24T08:44:28.216Z,11.82
2022-10-24T08:47:03.334Z,11.28
2022-10-24T08:49:39.182Z,9.65
2022-10-24T08:52:16.605Z,9.50
2022-10-24T08:54:45.626Z,9.80
2022-10-24T08:57:19.838Z,9.42
2022-10-24T08:59:47.090Z,9.50
2022-10-24T09:02:20.321Z,8.83
2022-10-24T09:04:53.756Z,11.52
2022-10-24T09:07:22.174Z,11.05
2022-10-24T09:09:51.906Z,8.51
2022-10-24T09:12:20.905Z,8.47
2022-10-24T09:14:54.672Z,9.51
2022-10-24T09:17:23.511Z,8.23
2022-10-24T09:19:55.366Z,7.57
2022-10-24T09:22:23.539Z,9.95
2022-10-24T09:24:53.558Z,8.17
2022-10-24T09:27:23.885Z,11.84
2022-10-24T09:29:52.622Z,10.52
2022-10-24T09:32:21.866Z,10.11
2022-10-24T09:34:49.313Z,8.99
2022-10-24T09:37:37.600Z,9.20
2022-10-24T09:40:21.940Z,9.95
2022-10-24T09:42:53.861Z,9.49
2022-10-24T09:45:31.854Z,7.64
2022-10-24T09:48:03.527Z,8.69
2022-10-24T09:50:34.075Z,9.19
2022-10-24T09:53:05.104Z,7.19
2022-10-24T09:55:32.310Z,7.80
2022-10-24T09:58:00.616Z,7.30
2022-10-24T10:00:30.146Z,6.30
2022-10-24T10:03:02.320Z,5.26
2022-10-24T10:05:42.948Z,4.46
2022-10-24T10:08:16.234Z,5.59
2022-10-24T10:10:43.327Z,5.49
2022-10-24T10:13:25.287Z,5.38
2022-10-24T10:15:55.154Z,5.36
2022-10-24T10:18:27.884Z,7.76
2022-10-24T10:21:02.008Z,8.86
2022-10-24T10:26:05.975Z,9.04
2022-10-24T10:28:35.940Z,8.46
2022-10-24T10:31:03.821Z,7.03
2022-10-24T10:36:10.088Z,8.25
2022-10-24T10:39:07.602Z,8.30
2022-10-24T10:41:44.924Z,6.84
2022-10-24T10:44:32.755Z,6.57
2022-10-24T10:47:11.796Z,7.30
2022-10-24T10:49:41.484Z,7.04
2022-10-24T10:52:13.178Z,6.74
2022-10-24T10:55:07.131Z,6.70
2022-10-24T10:57:41.219Z,9.21
2022-10-24T11:02:55.751Z,7.91
2022-10-24T11:05:33.690Z,5.86
2022-10-24T11:08:17.321Z,5.39
2022-10-24T11:10:53.950Z,4.87
2022-10-24T11:13:26.951Z,5.59
2022-10-24T11:15:58.921Z,5.49
2022-10-24T11:18:35.332Z,6.16
2022-10-24T11:21:06.972Z,6.59
2022-10-24T11:23:39.110Z,7.55
2022-10-24T11:26:11.303Z,8.21
2022-10-24T11:28:44.510Z,6.86
2022-10-24T11:31:16.379Z,6.06
2022-10-24T11:33:47.677Z,6.72
2022-10-24T11:36:20.540Z,7.74
2022-10-24T11:38:56.512Z,7.60
2022-10-24T11:41:44.437Z,6.88
2022-10-24T11:44:23.247Z,6.48
2022-10-24T11:46:56.972Z,6.74
2022-10-24T11:49:30.798Z,7.41
2022-10-24T11:52:05.015Z,7.63
2022-10-24T11:54:36.857Z,7.75
2022-10-24T11:57:11.378Z,6.89
2022-10-24T11:59:43.229Z,6.72
2022-10-24T12:02:49.425Z,9.76
2022-10-24T12:05:26.877Z,11.33
2022-10-24T12:08:26.829Z,9.63
2022-10-24T12:11:08.813Z,8.49
2022-10-24T12:13:52.301Z,7.83
2022-10-24T12:16:32.102Z,6.73
2022-10-24T12:19:02.517Z,6.19
2022-10-24T12:21:37.364Z,7.44
2022-10-24T12:24:04.966Z,6.71
2022-10-24T12:26:33.613Z,7.29
2022-10-24T12:29:07.908Z,7.33
2022-10-24T12:34:40.063Z,8.09
2022-10-24T12:37:30.144Z,8.15
2022-10-24T12:39:59.386Z,8.69
2022-10-24T12:43:15.498Z,7.09
2022-10-24T12:45:45.241Z,6.23
2022-10-24T12:48:36.923Z,5.64
2022-10-24T12:51:28.440Z,7.31
2022-10-24T12:54:05.199Z,9.62
2022-10-24T12:56:34.963Z,7.37
2022-10-24T12:59:15.102Z,7.78
2022-10-24T13:01:45.869Z,7.89
2022-10-24T13:04:49.792Z,6.98
2022-10-24T13:07:38.413Z,6.14
2022-10-24T13:10:25.387Z,7.74
2022-10-24T13:15:49.012Z,4.34
2022-10-24T13:18:31.321Z,6.48
2022-10-24T13:21:28.795Z,6.25
2022-10-24T13:24:11.524Z,5.83
2022-10-24T13:26:40.989Z,4.95
2022-10-24T13:29:13.683Z,3.73
2022-10-24T13:31:45.177Z,4.20
2022-10-24T13:34:21.013Z,5.10
2022-10-24T13:36:52.015Z,4.35
2022-10-24T13:39:24.072Z,4.99
2022-10-24T13:41:58.383Z,4.58
2022-10-24T13:44:29.854Z,5.97
2022-10-24T13:47:03.667Z,4.38
2022-10-24T13:49:37.158Z,4.76
2022-10-24T13:52:13.747Z,4.58
2022-10-24T13:54:46.501Z,4.15
2022-10-24T13:57:27.908Z,3.40
2022-10-24T13:59:57.599Z,4.34
2022-10-24T14:02:29.910Z,4.49
2022-10-24T14:05:01.280Z,4.77
2022-10-24T14:07:32.775Z,4.31
2022-10-24T14:10:02.663Z,5.41
2022-10-24T14:12:33.020Z,5.01
2022-10-24T14:15:00.881Z,4.91
2022-10-24T14:17:30.458Z,6.92
2022-10-24T14:19:59.331Z,6.46
2022-10-24T14:22:30.107Z,7.89
2022-10-24T14:24:57.154Z,9.73
2022-10-24T14:27:24.545Z,8.95
2022-10-24T14:30:04.332Z,7.06
2022-10-24T14:32:31.842Z,7.52
2022-10-24T14:37:38.661Z,7.53
2022-10-24T14:40:15.022Z,10.23
2022-10-24T14:42:43.559Z,9.43
2022-10-24T14:45:23.982Z,9.30
2022-10-24T14:47:52.521Z,7.88
2022-10-24T14:50:41.240Z,7.34
2022-10-24T14:53:23.831Z,8.64
2022-10-24T14:55:53.734Z,7.35
2022-10-24T14:58:26.803Z,8.19
2022-10-24T15:00:55.526Z,11.34
2022-10-24T15:03:23.851Z,10.58
2022-10-24T15:05:58.496Z,7.95
2022-10-24T15:08:35.172Z,9.31
2022-10-24T15:11:15.301Z,9.43
2022-10-24T15:13:50.888Z,9.65
2022-10-24T15:16:27.339Z,9.31
2022-10-24T15:18:56.785Z,7.88
2022-10-24T15:21:26.624Z,9.27
2022-10-24T15:23:57.254Z,8.40
2022-10-24T15:26:27.431Z,9.53
2022-10-24T15:29:04.062Z,9.74
2022-10-24T15:31:34.407Z,9.77
2022-10-24T15:34:01.570Z,9.89
2022-10-24T15:36:31.759Z,9.64
2022-10-24T15:39:02.087Z,8.71
2022-10-24T15:41:29.227Z,7.84
2022-10-24T15:43:57.199Z,8.06
2022-10-24T15:46:26.245Z,6.77
2022-10-24T15:48:53.211Z,9.98
2022-10-24T15:51:23.307Z,7.65
2022-10-24T15:53:50.845Z,7.30
2022-10-24T15:56:19.379Z,7.06
2022-10-24T16:01:26.936Z,6.96
2022-10-24T16:03:54.293Z,7.84
2022-10-24T16:06:21.162Z,6.34
2022-10-24T16:08:50.449Z,6.41
2022-10-24T16:11:19.384Z,7.21
2022-10-24T16:13:49.630Z,6.95
2022-10-24T16:16:16.749Z,6.73
2022-10-24T16:18:48.643Z,7.74
2022-10-24T16:21:18.269Z,6.28
2022-10-24T16:23:45.543Z,6.93
2022-10-24T16:26:12.722Z,6.66
2022-10-24T16:28:42.766Z,7.51
2022-10-24T16:31:11.932Z,9.02
2022-10-24T16:33:40.011Z,8.55
2022-10-24T16:36:07.183Z,6.95
2022-10-24T16:38:34.319Z,5.43
2022-10-24T16:41:01.130Z,6.08
2022-10-24T16:43:28.523Z,5.66
2022-10-24T16:46:00.797Z,7.07
2022-10-24T16:48:27.805Z,6.43
2022-10-24T16:50:57.682Z,6.03
2022-10-24T16:53:24.744Z,6.72
2022-10-24T16:55:56.154Z,5.19
2022-10-24T16:58:23.425Z,5.14
2022-10-24T17:00:51.670Z,4.93
2022-10-24T17:03:19.795Z,3.56
2022-10-24T17:05:49.084Z,4.54
2022-10-24T17:08:15.954Z,5.13
2022-10-24T17:10:44.166Z,5.71
2022-10-24T17:13:11.015Z,5.68
2022-10-24T17:15:38.911Z,4.60
2022-10-24T17:18:06.173Z,4.85
2022-10-24T17:20:36.875Z,4.73
2022-10-24T17:23:06.364Z,6.19
2022-10-24T17:25:33.931Z,5.25
2022-10-24T17:28:00.967Z,5.12
2022-10-24T17:30:28.823Z,4.80
2022-10-24T17:32:59.019Z,4.80
2022-10-24T17:35:26.917Z,4.66
2022-10-24T17:38:07.092Z,5.95
2022-10-24T17:40:41.332Z,6.55
2022-10-24T17:43:20.255Z,5.18
2022-10-24T17:45:48.009Z,4.14
2022-10-24T17:48:16.551Z,4.11
2022-10-24T17:50:45.581Z,3.30
2022-10-24T17:53:17.377Z,4.10
2022-10-24T17:55:47.579Z,4.39
2022-10-24T17:58:18.696Z,3.14
2022-10-24T18:00:46.506Z,2.32
2022-10-24T18:03:14.463Z,1.37
2022-10-24T18:05:42.664Z,0.89
2022-10-24T18:08:14.555Z,0.74
2022-10-24T18:10:41.805Z,0.42
2022-10-24T18:13:09.348Z,0.85
2022-10-24T18:15:37.023Z,0.45
2022-10-24T18:18:04.484Z,0.24
2022-10-24T18:20:34.920Z,0.13
2022-10-24T18:23:03.256Z,0.07
2022-10-24T18:25:31.685Z,0.20
2022-10-24T18:27:58.798Z,0.23
2022-10-24T18:30:25.942Z,0.18
2022-10-24T18:32:52.899Z,0.14
2022-10-24T18:35:19.753Z,0.15
2022-10-24T18:37:46.712Z,0.12
2022-10-24T18:40:15.126Z,0.48
2022-10-24T18:42:51.763Z,0.61
2022-10-24T18:45:21.315Z,0.45
2022-10-24T18:47:49.305Z,0.77
2022-10-24T18:50:18.841Z,1.10
2022-10-24T18:52:51.911Z,1.55
2022-10-24T18:55:21.065Z,1.28
2022-10-24T18:57:51.400Z,0.79
2022-10-24T19:00:20.811Z,1.06
2022-10-24T19:03:06.003Z,1.12
2022-10-24T19:05:42.025Z,1.14
2022-10-24T19:08:13.569Z,1.39
2022-10-24T19:10:41.468Z,0.78
2022-10-24T19:13:11.648Z,0.51
2022-10-24T19:15:42.476Z,0.32
2022-10-24T19:18:12.163Z,0.22
2022-10-24T19:20:39.094Z,0.25
2022-10-24T19:23:06.079Z,0.63
2022-10-24T19:25:33.515Z,0.43
2022-10-24T19:28:04.302Z,0.68
2022-10-24T19:30:32.647Z,0.42
2022-10-24T19:32:59.390Z,0.23
2022-10-24T19:35:26.356Z,0.17
2022-10-24T19:37:53.500Z,0.14
2022-10-24T19:40:20.460Z,0.15
2022-10-24T19:42:47.296Z,0.38
2022-10-24T19:45:14.321Z,0.68
2022-10-24T19:47:42.805Z,0.89
2022-10-24T19:50:11.125Z,0.74
2022-10-24T19:52:38.188Z,0.52
2022-10-24T19:55:06.079Z,0.44
2022-10-24T19:57:33.091Z,0.68
2022-10-24T20:00:00.137Z,0.83
2022-10-24T20:02:26.894Z,0.88
2022-10-24T20:04:55.592Z,0.54
2022-10-24T20:07:22.603Z,0.48
2022-10-24T20:09:49.489Z,0.36
2022-10-24T20:12:16.738Z,1.46
2022-10-24T20:14:45.712Z,1.03
2022-10-24T20:17:14.036Z,0.57
2022-10-24T20:19:41.970Z,0.35
2022-10-24T20:22:12.710Z,0.25
2022-10-24T20:24:39.877Z,0.28
2022-10-24T20:29:38.447Z,0.49
2022-10-24T20:32:06.606Z,0.26
2022-10-24T20:34:36.441Z,0.31
2022-10-24T20:37:05.714Z,0.18
2022-10-24T20:39:33.973Z,0.09
2022-10-24T20:42:03.341Z,0.86
2022-10-24T20:44:31.612Z,0.46
2022-10-24T20:46:58.683Z,0.24
2022-10-24T20:49:25.755Z,1.25
2022-10-24T20:51:54.844Z,0.66
2022-10-24T20:54:21.711Z,0.35
2022-10-24T20:56:50.323Z,0.82
2022-10-24T20:59:21.346Z,0.46
2022-10-24T21:01:49.351Z,0.81
2022-10-24T21:04:20.775Z,0.43
2022-10-24T21:06:47.875Z,0.26
2022-10-24T21:09:15.003Z,0.26
2022-10-24T21:11:41.839Z,0.23
2022-10-24T21:14:12.832Z,0.12
2022-10-24T21:16:39.694Z,1.04
2022-10-24T21:19:07.726Z,1.21
2022-10-24T21:21:34.772Z,0.96
2022-10-24T21:24:04.445Z,0.51
2022-10-24T21:26:33.721Z,1.18
2022-10-24T21:29:08.911Z,0.99
2022-10-24T21:31:43.270Z,1.02
2022-10-24T21:34:11.953Z,0.54
2022-10-24T21:36:38.887Z,0.34
2022-10-24T21:39:05.910Z,0.18
2022-10-24T21:41:33.731Z,0.27
2022-10-24T21:44:00.711Z,0.14
2022-10-24T21:46:28.314Z,0.32
2022-10-24T21:48:57.312Z,0.22
2022-10-24T21:51:26.719Z,0.25
2022-10-24T21:53:55.419Z,0.79
2022-10-24T21:56:26.535Z,0.42
2022-10-24T21:58:55.073Z,0.22
2022-10-24T22:01:25.041Z,0.12
2022-10-24T22:03:52.475Z,0.47
2022-10-24T22:06:21.838Z,0.47
2022-10-24T22:08:49.695Z,0.25
2022-10-24T22:11:19.908Z,0.18
2022-10-24T22:13:47.075Z,0.10
2022-10-24T22:16:14.728Z,0.39
2022-10-24T22:18:41.893Z,0.61
2022-10-24T22:21:14.240Z,0.70
2022-10-24T22:23:42.482Z,0.89
2022-10-24T22:26:09.379Z,0.68
2022-10-24T22:28:36.434Z,0.56
2022-10-24T22:31:03.955Z,0.50
2022-10-24T22:33:34.335Z,1.12
2022-10-24T22:36:06.146Z,0.88
2022-10-24T22:38:35.644Z,0.85
2022-10-24T22:41:04.704Z,0.51
2022-10-24T22:43:32.251Z,0.37
2022-10-24T22:46:13.792Z,1.19
2022-10-24T22:48:45.163Z,0.85
2022-10-24T22:51:16.289Z,1.14
2022-10-24T22:53:43.648Z,0.70
2022-10-24T22:56:18.741Z,0.42
2022-10-24T22:58:46.091Z,0.73
2022-10-24T23:01:28.790Z,0.96
2022-10-24T23:04:03.317Z,0.74
2022-10-24T23:06:39.944Z,0.97
2022-10-24T23:09:06.803Z,0.51
2022-10-24T23:11:36.771Z,0.32
2022-10-24T23:14:04.631Z,0.28
2022-10-24T23:16:39.058Z,0.24
2022-10-24T23:21:45.604Z,0.46
2022-10-24T23:24:16.051Z,0.24
2022-10-24T23:26:55.428Z,0.29
2022-10-24T23:29:29.521Z,0.33
2022-10-24T23:31:58.307Z,0.36
2022-10-24T23:34:26.106Z,1.05
2022-10-24T23:36:58.456Z,0.71
2022-10-24T23:39:30.656Z,0.40
2022-10-24T23:41:59.697Z,0.85
2022-10-24T23:44:27.007Z,1.36
2022-10-24T23:47:00.818Z,1.29
2022-10-24T23:49:36.047Z,0.77
2022-10-24T23:52:12.036Z,0.55
2022-10-24T23:54:39.602Z,0.85
2022-10-24T23:57:15.065Z,0.86
2022-10-24T23:59:42.162Z,0.68
